Time;durP1;ratioP1;P1;durP2;ratioP2;P2;SDS_P1;SDS_P2;PMS_P1;PMS_P2;Temp;Humidity;BMP_temperature;BMP_pressure;BME280_temperature;BME280_humidity;BME280_pressure;Samples;Min_cycle;Max_cycle;Signal;HPM_P1;HPM_P2
2023/05/15 04:15:54;;;;;;;55.12;32.47;;;;;;;11.10;100.00;99483.94;5560635;32;190606;-85
2023/05/15 04:19:01;;;;;;;58.63;34.08;;;;;;;11.08;100.00;99475.25;5546787;32;33529;-85
2023/05/15 04:22:05;;;;;;;48.67;30.90;;;;;;;11.09;100.00;99480.47;5547875;32;34218;-83
2023/05/15 04:25:10;;;;;;;41.08;28.23;;;;;;;11.16;100.00;99480.88;5547946;32;34429;-85
2023/05/15 04:28:18;;;;;;;36.10;25.85;;;;;;;11.18;100.00;99489.63;5547089;32;34543;-85
2023/05/15 04:31:26;;;;;;;35.47;23.08;;;;;;;11.26;100.00;99492.59;5547028;32;33676;-85
2023/05/15 04:34:35;;;;;;;29.45;21.85;;;;;;;11.31;100.00;99486.97;5546630;32;33850;-85
2023/05/15 04:37:46;;;;;;;29.15;22.05;;;;;;;11.29;100.00;99479.12;5546652;32;33845;-85
2023/05/15 04:40:56;;;;;;;29.00;21.25;;;;;;;11.39;100.00;99478.50;5546548;32;33452;-85
2023/05/15 04:44:04;;;;;;;32.13;21.23;;;;;;;11.36;100.00;99492.00;5546916;32;33701;-85
2023/05/15 04:47:14;;;;;;;28.15;19.83;;;;;;;11.44;100.00;99503.81;5546721;32;34068;-85
2023/05/15 04:50:23;;;;;;;26.67;19.70;;;;;;;11.51;100.00;99504.22;5547080;32;33559;-85
2023/05/15 04:53:31;;;;;;;25.65;20.27;;;;;;;11.47;100.00;99505.41;5547282;32;33953;-85
2023/05/15 04:56:38;;;;;;;27.52;20.25;;;;;;;11.57;100.00;99518.91;5546725;32;35206;-85
2023/05/15 04:59:45;;;;;;;26.52;20.25;;;;;;;11.62;100.00;99523.91;5546897;32;34061;-85
2023/05/15 05:02:54;;;;;;;24.73;19.73;;;;;;;11.65;100.00;99527.19;5545275;32;33972;-84
2023/05/15 05:05:59;;;;;;;26.30;18.92;;;;;;;11.75;100.00;99547.81;5545507;32;34012;-83
2023/05/15 05:09:07;;;;;;;25.40;20.20;;;;;;;11.79;100.00;99555.50;5547599;32;33673;-82
2023/05/15 05:12:13;;;;;;;28.42;19.55;;;;;;;11.73;100.00;99551.44;5546805;32;33929;-85
2023/05/15 05:15:19;;;;;;;24.92;18.60;;;;;;;11.82;100.00;99549.13;5545083;32;33700;-85
2023/05/15 05:18:23;;;;;;;24.60;18.33;;;;;;;11.77;100.00;99548.56;5545907;32;34068;-85
2023/05/15 05:21:28;;;;;;;24.45;16.80;;;;;;;11.84;100.00;99549.84;5541591;32;33515;-85
2023/05/15 05:24:34;;;;;;;23.40;17.70;;;;;;;11.93;100.00;99559.84;5542936;32;33746;-86
2023/05/15 05:27:38;;;;;;;21.87;17.67;;;;;;;12.04;100.00;99569.78;5533201;32;33789;-85
2023/05/15 05:30:46;;;;;;;19.65;16.95;;;;;;;12.05;100.00;99574.13;5530436;32;33983;-86
2023/05/15 05:33:52;;;;;;;22.02;17.67;;;;;;;12.00;100.00;99569.13;5528437;32;33574;-85
2023/05/15 05:36:56;;;;;;;22.23;17.62;;;;;;;12.02;100.00;99571.66;5529607;32;33645;-85
2023/05/15 05:40:05;;;;;;;22.05;17.80;;;;;;;12.06;100.00;99567.03;5529882;32;34375;-85
2023/05/15 05:43:08;;;;;;;25.85;18.27;;;;;;;12.07;100.00;99553.59;5529537;32;33851;-86
2023/05/15 05:46:13;;;;;;;25.05;18.92;;;;;;;11.90;100.00;99548.56;5531316;32;33738;-86
2023/05/15 05:49:19;;;;;;;26.65;18.67;;;;;;;12.06;100.00;99546.59;5524727;32;33862;-85
2023/05/15 05:52:27;;;;;;;20.30;16.85;;;;;;;12.12;100.00;99562.12;5523486;32;34659;-86
2023/05/15 05:55:32;;;;;;;22.25;16.52;;;;;;;12.11;100.00;99564.88;5527583;32;33748;-86
2023/05/15 05:58:37;;;;;;;19.83;15.77;;;;;;;12.26;100.00;99571.81;5542811;32;34638;-85
2023/05/15 06:01:43;;;;;;;20.98;15.98;;;;;;;12.40;100.00;99578.81;5521536;32;34166;-85
2023/05/15 06:04:47;;;;;;;20.85;16.70;;;;;;;12.56;100.00;99577.72;5519218;32;33641;-86
2023/05/15 06:07:52;;;;;;;19.92;16.37;;;;;;;12.52;100.00;99574.44;5521132;32;34270;-87
2023/05/15 06:10:55;;;;;;;18.90;15.65;;;;;;;12.57;100.00;99571.44;5520318;32;34638;-85
2023/05/15 06:14:01;;;;;;;19.50;16.00;;;;;;;12.73;100.00;99570.34;5522869;32;33705;-85
2023/05/15 06:17:06;;;;;;;19.20;14.90;;;;;;;12.97;100.00;99575.69;5531471;32;33712;-86
2023/05/15 06:20:11;;;;;;;15.82;13.95;;;;;;;13.19;100.00;99582.13;5526421;32;34975;-85
2023/05/15 06:23:15;;;;;;;18.85;13.70;;;;;;;13.28;100.00;99583.28;5532473;32;33517;-85
2023/05/15 06:26:20;;;;;;;13.35;11.95;;;;;;;13.44;100.00;99589.13;5532857;32;33643;-85
2023/05/15 06:29:26;;;;;;;16.60;13.77;;;;;;;13.47;100.00;99588.09;5520510;32;33766;-85
2023/05/15 06:32:34;;;;;;;19.12;13.90;;;;;;;13.55;100.00;99604.37;5533538;32;32484;-86
2023/05/15 06:35:38;;;;;;;14.52;11.73;;;;;;;13.48;100.00;99600.47;5535436;32;34116;-86
2023/05/15 06:38:44;;;;;;;19.08;13.45;;;;;;;13.61;100.00;99593.25;5531134;32;34476;-90
2023/05/15 06:41:49;;;;;;;20.12;13.10;;;;;;;13.66;100.00;99600.03;5532899;32;33534;-90
2023/05/15 06:44:54;;;;;;;14.15;12.40;;;;;;;13.82;100.00;99602.38;5528710;32;33807;-86
2023/05/15 06:48:00;;;;;;;17.02;13.38;;;;;;;13.88;100.00;99588.59;5528282;32;34343;-87
2023/05/15 06:51:04;;;;;;;19.12;14.32;;;;;;;13.99;100.00;99571.81;5522789;32;33432;-85
2023/05/15 06:54:07;;;;;;;16.08;13.38;;;;;;;13.96;100.00;99566.69;5529393;32;33980;-85
2023/05/15 06:57:10;;;;;;;19.58;13.20;;;;;;;14.19;100.00;99561.41;5525711;32;33659;-85
2023/05/15 07:00:14;;;;;;;16.95;13.80;;;;;;;14.13;100.00;99562.75;5531915;32;34498;-83
2023/05/15 07:03:20;;;;;;;19.77;13.40;;;;;;;14.40;100.00;99549.03;5536059;32;33813;-84
2023/05/15 07:06:27;;;;;;;14.15;12.05;;;;;;;14.63;100.00;99556.19;5532622;32;33646;-84
2023/05/15 07:09:30;;;;;;;14.73;11.12;;;;;;;14.88;100.00;99560.41;5528582;32;34026;-83
2023/05/15 07:12:36;;;;;;;12.40;10.60;;;;;;;14.81;100.00;99568.09;5525745;32;34920;-84
2023/05/15 07:15:45;;;;;;;12.00;10.13;;;;;;;15.00;100.00;99565.75;5529955;32;34537;-86
2023/05/15 07:18:50;;;;;;;17.23;11.18;;;;;;;15.06;100.00;99567.91;5526216;32;34846;-85
2023/05/15 07:21:56;;;;;;;19.65;9.75;;;;;;;15.34;100.00;99577.16;5536268;32;33999;-86
2023/05/15 07:25:01;;;;;;;16.58;11.05;;;;;;;15.55;100.00;99573.72;5526173;32;33077;-85
2023/05/15 07:28:08;;;;;;;13.07;11.25;;;;;;;15.30;100.00;99585.56;5528752;32;33520;-85
2023/05/15 07:31:14;;;;;;;14.18;11.20;;;;;;;15.32;100.00;99592.50;5528020;32;33910;-85
2023/05/15 07:34:19;;;;;;;11.60;10.38;;;;;;;14.98;100.00;99603.25;5524711;32;33633;-84
2023/05/15 07:37:27;;;;;;;13.75;10.75;;;;;;;14.74;100.00;99611.38;5528424;32;34301;-85
2023/05/15 07:40:31;;;;;;;13.73;11.43;;;;;;;14.88;100.00;99599.63;5525179;32;32544;-84
2023/05/15 07:43:37;;;;;;;13.75;11.12;;;;;;;14.93;100.00;99590.28;5527525;32;33812;-84
2023/05/15 07:46:44;;;;;;;12.43;10.82;;;;;;;14.89;100.00;99579.97;5526387;32;33934;-84
2023/05/15 07:49:49;;;;;;;12.30;11.00;;;;;;;15.04;100.00;99575.22;5529350;32;32695;-85
2023/05/15 07:52:54;;;;;;;12.45;11.15;;;;;;;14.92;100.00;99572.56;5525147;32;33392;-84
2023/05/15 07:56:00;;;;;;;15.45;11.12;;;;;;;14.99;100.00;99570.22;5538165;32;34244;-85
2023/05/15 07:59:03;;;;;;;12.90;11.12;;;;;;;15.11;100.00;99563.03;5529264;32;34019;-84
2023/05/15 08:02:08;;;;;;;12.88;10.70;;;;;;;15.19;100.00;99567.75;5521871;32;32579;-85
2023/05/15 08:05:14;;;;;;;12.07;10.57;;;;;;;15.24;100.00;99578.91;5522733;32;34145;-83
2023/05/15 08:08:19;;;;;;;13.85;11.18;;;;;;;15.36;100.00;99593.94;5514091;32;34631;-84
2023/05/15 08:11:24;;;;;;;13.35;11.43;;;;;;;15.50;100.00;99613.31;5533140;32;33709;-87
2023/05/15 08:14:31;;;;;;;13.43;11.60;;;;;;;15.40;100.00;99599.88;5539547;32;34680;-88
2023/05/15 08:17:39;;;;;;;13.23;11.35;;;;;;;15.60;100.00;99598.19;5533266;32;33907;-83
2023/05/15 08:20:44;;;;;;;12.02;10.55;;;;;;;16.38;100.00;99596.19;5534699;32;34715;-85
2023/05/15 08:23:48;;;;;;;14.45;12.23;;;;;;;16.80;100.00;99598.78;5531889;32;34452;-85
2023/05/15 08:26:57;;;;;;;15.77;12.10;;;;;;;17.25;100.00;99596.66;5530913;32;33593;-85
2023/05/15 08:30:02;;;;;;;14.60;11.50;;;;;;;17.24;100.00;99598.50;5519512;32;32734;-82
2023/05/15 08:33:06;;;;;;;14.70;11.85;;;;;;;17.62;100.00;99606.72;5530932;32;34726;-82
2023/05/15 08:36:13;;;;;;;14.32;10.63;;;;;;;17.70;100.00;99614.03;5522877;32;34646;-85
2023/05/15 08:39:17;;;;;;;12.60;10.88;;;;;;;18.02;100.00;99601.31;5525853;32;32461;-83
2023/05/15 08:42:24;;;;;;;13.20;10.77;;;;;;;17.62;100.00;99596.00;5524185;32;32845;-82
2023/05/15 08:45:28;;;;;;;10.32;8.82;;;;;;;17.81;100.00;99598.78;5530904;32;34072;-83
2023/05/15 08:48:37;;;;;;;13.77;9.73;;;;;;;18.80;100.00;99586.81;5529032;32;34851;-83
2023/05/15 08:51:46;;;;;;;13.23;9.98;;;;;;;19.42;100.00;99592.53;5523028;32;33936;-84
2023/05/15 08:54:53;;;;;;;;;;;;;;;19.75;100.00;99582.91;5530227;32;33740;-83
2023/05/15 08:58:01;;;;;;;11.75;8.57;;;;;;;20.05;100.00;99591.56;5524366;32;35001;-83
2023/05/15 09:01:07;;;;;;;9.23;8.13;;;;;;;20.31;100.00;99587.19;5517218;32;33716;-83
2023/05/15 09:04:12;;;;;;;9.18;8.27;;;;;;;20.19;100.00;99590.16;5534545;32;33830;-83
2023/05/15 09:07:19;;;;;;;7.15;6.30;;;;;;;19.56;100.00;99583.09;5540429;32;34626;-83
2023/05/15 09:10:26;;;;;;;6.87;6.28;;;;;;;19.85;100.00;99576.56;5528311;32;34040;-84
2023/05/15 09:13:30;;;;;;;8.65;6.65;;;;;;;20.65;100.00;99590.88;5525535;32;34466;-83
2023/05/15 09:16:33;;;;;;;5.62;5.05;;;;;;;20.80;100.00;99601.91;5531601;32;33758;-83
2023/05/15 09:19:41;;;;;;;7.50;5.93;;;;;;;20.58;100.00;99606.88;5532965;32;33592;-84
2023/05/15 09:22:49;;;;;;;6.12;5.53;;;;;;;20.08;100.00;99609.25;5533676;32;34139;-84
2023/05/15 09:25:57;;;;;;;6.87;4.03;;;;;;;20.08;100.00;99611.97;5534028;32;34126;-84
2023/05/15 09:29:02;;;;;;;5.55;4.05;;;;;;;20.51;100.00;99620.13;5527881;32;34418;-84
2023/05/15 09:32:11;;;;;;;3.65;3.00;;;;;;;20.58;100.00;99628.44;5525631;32;33559;-88
2023/05/15 09:35:34;;;;;;;5.40;3.20;;;;;;;20.90;100.00;99637.69;5532247;32;33588;-85
2023/05/15 09:38:47;;;;;;;3.20;3.00;;;;;;;20.85;100.00;99642.72;5522707;32;34325;-85
2023/05/15 09:42:04;;;;;;;3.30;3.05;;;;;;;20.86;100.00;99653.34;5534283;32;34754;-85
2023/05/15 09:45:17;;;;;;;3.42;3.15;;;;;;;21.14;100.00;99645.03;5534397;32;33585;-85
2023/05/15 09:48:22;;;;;;;3.62;3.33;;;;;;;21.45;100.00;99643.59;5533543;32;33801;-84
2023/05/15 09:51:26;;;;;;;3.42;3.12;;;;;;;21.11;100.00;99650.75;5523801;32;34684;-84
2023/05/15 09:54:30;;;;;;;3.67;3.15;;;;;;;20.45;100.00;99640.47;5531866;32;33569;-86
2023/05/15 09:57:35;;;;;;;3.55;3.25;;;;;;;20.42;100.00;99637.25;5533839;32;33807;-85
2023/05/15 10:00:42;;;;;;;6.15;3.25;;;;;;;20.19;100.00;99644.00;5535184;32;35155;-84
2023/05/15 10:03:59;;;;;;;4.28;3.17;;;;;;;20.05;100.00;99647.25;5529923;32;34289;-85
2023/05/15 10:07:08;;;;;;;3.37;3.12;;;;;;;20.09;100.00;99643.25;5538648;32;34700;-85
2023/05/15 10:10:14;;;;;;;4.22;3.47;;;;;;;19.83;100.00;99645.88;5533123;32;33571;-85
2023/05/15 10:13:18;;;;;;;3.62;3.37;;;;;;;19.90;100.00;99641.53;5528515;32;34785;-86
2023/05/15 10:16:21;;;;;;;6.72;4.62;;;;;;;20.01;100.00;99643.19;5524229;32;34905;-86
2023/05/15 10:19:28;;;;;;;5.20;4.10;;;;;;;19.98;100.00;99640.81;5529075;32;33980;-84
2023/05/15 10:22:36;;;;;;;3.87;3.50;;;;;;;;;;5535640;32;33837;-84
2023/05/15 10:25:55;;;;;;;3.85;3.35;;;;;;;20.67;100.00;99645.47;5524555;32;34197;-85
2023/05/15 10:29:05;;;;;;;4.77;4.00;;;;;;;20.24;100.00;99646.22;5517455;32;33899;-88
2023/05/15 10:32:12;;;;;;;4.30;3.90;;;;;;;19.98;100.00;99644.34;5530588;32;34485;-86
2023/05/15 10:35:23;;;;;;;5.68;3.45;;;;;;;20.01;100.00;99643.19;5532107;32;33835;-85
2023/05/15 10:38:30;;;;;;;2.25;2.08;;;;;;;20.05;100.00;99649.94;5537034;32;34856;-85
2023/05/15 10:41:38;;;;;;;1.80;1.65;;;;;;;20.07;100.00;99650.66;5533326;32;34076;-86
2023/05/15 10:44:42;;;;;;;3.62;1.70;;;;;;;19.99;100.00;99648.72;5524162;32;33527;-86
2023/05/15 10:47:47;;;;;;;2.75;1.52;;;;;;;20.33;100.00;99647.97;5530191;32;33854;-85
2023/05/15 10:50:52;;;;;;;1.77;1.55;;;;;;;20.82;96.68;99651.13;5532631;32;33925;-86
2023/05/15 10:54:00;;;;;;;1.60;1.50;;;;;;;21.52;96.62;99646.50;5523904;32;33675;-86
2023/05/15 10:57:05;;;;;;;2.72;2.53;;;;;;;21.96;88.13;99658.84;5531402;32;33901;-87
2023/05/15 11:00:30;;;;;;;2.60;2.40;;;;;;;21.31;95.99;99661.25;5529072;32;34473;-86
2023/05/15 11:03:37;;;;;;;2.70;2.50;;;;;;;21.26;100.00;99652.81;5520945;32;34783;-87
2023/05/15 11:07:11;;;;;;;2.25;2.00;;;;;;;21.58;98.70;99645.84;5526801;32;33669;-87
2023/05/15 11:10:30;;;;;;;1.67;1.58;;;;;;;22.83;92.14;99652.00;5527570;32;33970;-86
2023/05/15 11:14:09;;;;;;;2.00;1.80;;;;;;;23.26;81.75;99654.34;5522666;32;33807;-86
2023/05/15 11:17:16;;;;;;;2.17;1.62;;;;;;;22.66;85.95;99645.81;5525106;32;34301;-87
2023/05/15 11:20:30;;;;;;;2.47;1.70;;;;;;;22.31;90.18;99656.81;5525984;32;33704;-86
2023/05/15 11:23:38;;;;;;;2.45;2.25;;;;;;;22.11;90.64;99652.81;5525638;32;34030;-86
2023/05/15 11:26:42;;;;;;;2.58;2.12;;;;;;;21.87;89.74;99638.28;5533951;32;34424;-85
2023/05/15 11:30:05;;;;;;;2.22;2.03;;;;;;;21.54;91.08;99625.56;5528505;32;33511;-86
2023/05/15 11:33:12;;;;;;;4.10;2.37;;;;;;;20.31;100.00;99622.19;5524497;32;34009;-85
2023/05/15 11:36:17;;;;;;;1.98;1.87;;;;;;;20.34;100.00;99621.88;5538395;32;33995;-87
2023/05/15 11:39:23;;;;;;;3.80;2.08;;;;;;;20.46;98.05;99634.06;5531999;32;33497;-86
2023/05/15 11:42:26;;;;;;;2.25;2.10;;;;;;;20.66;99.74;99633.03;5535587;32;34055;-87
2023/05/15 11:45:34;;;;;;;3.80;1.98;;;;;;;19.86;100.00;99624.88;5527763;32;33602;-87
2023/05/15 11:48:43;;;;;;;1.67;1.58;;;;;;;19.83;100.00;99629.72;5533887;32;33048;-86
2023/05/15 11:52:00;;;;;;;2.62;2.10;;;;;;;19.63;100.00;99629.88;5538191;32;34003;-87
2023/05/15 11:55:03;;;;;;;1.92;1.83;;;;;;;18.93;100.00;99631.28;5537801;32;33590;-86
2023/05/15 11:58:18;;;;;;;2.20;2.10;;;;;;;18.54;100.00;99626.91;5542531;32;35167;-86
2023/05/15 12:01:21;;;;;;;3.92;2.10;;;;;;;18.55;100.00;99626.78;5520319;32;34227;-86
2023/05/15 12:04:25;;;;;;;1.95;1.85;;;;;;;18.65;100.00;99626.75;5516767;32;34442;-86
2023/05/15 12:07:28;;;;;;;2.12;2.03;;;;;;;18.62;100.00;99627.03;5529015;32;33855;-88
2023/05/15 12:10:32;;;;;;;3.20;2.00;;;;;;;18.28;100.00;99630.25;5523372;32;35512;-90
2023/05/15 12:13:35;;;;;;;3.45;1.95;;;;;;;18.03;100.00;99628.00;5528094;32;34429;-91
2023/05/15 12:16:38;;;;;;;2.20;2.10;;;;;;;18.09;100.00;99633.81;5528629;32;34774;-91
2023/05/15 12:19:41;;;;;;;3.15;2.28;;;;;;;18.45;100.00;99634.00;5519613;32;33871;-88
2023/05/15 12:22:45;;;;;;;2.67;2.30;;;;;;;18.28;100.00;99638.28;5522044;32;33654;-87
2023/05/15 12:25:53;;;;;;;3.75;2.60;;;;;;;18.59;100.00;99628.19;5522161;32;33873;-87
2023/05/15 12:28:57;;;;;;;3.30;2.45;;;;;;;19.21;100.00;99632.16;5525277;32;33889;-86
2023/05/15 12:32:00;;;;;;;2.95;2.17;;;;;;;19.43;100.00;99640.78;5521728;32;34040;-86
2023/05/15 12:35:04;;;;;;;5.32;2.17;;;;;;;19.08;100.00;99631.66;5520226;32;33953;-87
2023/05/15 12:38:07;;;;;;;3.03;2.28;;;;;;;19.05;100.00;99640.88;5531792;32;34362;-87
2023/05/15 12:41:11;;;;;;;2.53;2.33;;;;;;;19.12;100.00;99651.88;5578955;26;33788;-88
2023/05/15 12:44:17;;;;;;;2.53;2.10;;;;;;;18.56;100.00;99657.19;5544562;32;33974;-89
2023/05/15 12:47:24;;;;;;;2.33;2.12;;;;;;;18.68;100.00;99642.56;5539797;32;35047;-88
2023/05/15 12:50:30;;;;;;;4.07;2.30;;;;;;;18.48;100.00;99630.19;5548738;32;34005;-88
2023/05/15 12:53:33;;;;;;;2.58;2.37;;;;;;;18.57;100.00;99640.88;5523072;32;34789;-87
2023/05/15 12:56:36;;;;;;;7.93;2.08;;;;;;;18.92;100.00;99640.34;5544959;32;33538;-87
2023/05/15 12:59:39;;;;;;;2.20;2.10;;;;;;;18.62;100.00;99636.94;5540504;32;33898;-87
2023/05/15 13:02:44;;;;;;;2.42;2.30;;;;;;;18.44;100.00;99621.56;5541779;32;33675;-85
2023/05/15 13:05:48;;;;;;;5.85;2.08;;;;;;;18.91;100.00;99620.69;5525688;32;33754;-86
2023/05/15 13:08:53;;;;;;;2.40;2.12;;;;;;;19.12;100.00;99620.44;5529660;32;33871;-86
2023/05/15 13:12:01;;;;;;;2.03;1.83;;;;;;;19.53;100.00;99617.34;5523596;32;34132;-86
2023/05/15 13:15:05;;;;;;;4.15;1.70;;;;;;;19.04;100.00;99608.75;5512116;32;33376;-86
2023/05/15 13:18:12;;;;;;;4.43;2.08;;;;;;;19.32;100.00;99616.81;5511572;32;33575;-86
2023/05/15 13:21:17;;;;;;;2.65;1.90;;;;;;;19.40;100.00;99630.31;5516637;32;34551;-86
2023/05/15 13:24:21;;;;;;;2.00;1.90;;;;;;;19.35;100.00;99624.56;5523092;32;34617;-87
2023/05/15 13:27:24;;;;;;;3.95;2.28;;;;;;;19.08;100.00;99605.66;5576313;26;34662;-87
2023/05/15 13:30:34;;;;;;;2.40;2.17;;;;;;;18.79;100.00;99608.44;5558865;32;34871;-86
2023/05/15 13:33:38;;;;;;;4.20;1.83;;;;;;;18.73;100.00;99604.50;5574887;32;33959;-87
2023/05/15 13:36:42;;;;;;;2.95;1.60;;;;;;;18.51;100.00;99616.47;5555964;32;33971;-86
2023/05/15 13:39:47;;;;;;;5.55;1.70;;;;;;;18.61;100.00;99614.63;5552025;32;33879;-86
2023/05/15 13:42:50;;;;;;;3.35;2.08;;;;;;;18.82;100.00;99605.47;5551253;32;33853;-87
2023/05/15 13:45:54;;;;;;;1.55;1.45;;;;;;;19.05;100.00;99603.25;5549390;32;33849;-86
2023/05/15 13:48:59;;;;;;;2.55;1.58;;;;;;;19.24;100.00;99612.19;5547888;32;33359;-87
2023/05/15 13:52:04;;;;;;;2.25;1.33;;;;;;;19.14;100.00;99598.81;5553349;32;33794;-87
2023/05/15 13:55:16;;;;;;;2.20;1.60;;;;;;;19.28;100.00;99604.66;5545745;32;34216;-90
2023/05/15 13:58:25;;;;;;;2.55;1.35;;;;;;;19.26;100.00;99607.50;5558356;32;34543;-86
2023/05/15 14:01:30;;;;;;;1.40;1.30;;;;;;;19.39;100.00;99604.44;5542000;32;33573;-86
2023/05/15 14:04:38;;;;;;;1.05;1.05;;;;;;;19.53;100.00;99600.38;5543471;32;33761;-85
2023/05/15 14:07:44;;;;;;;4.15;1.35;;;;;;;19.35;100.00;99611.09;5550827;32;33740;-86
2023/05/15 14:10:53;;;;;;;7.47;1.90;;;;;;;19.09;100.00;99612.72;5552577;32;34424;-85
2023/05/15 14:14:00;;;;;;;1.60;1.50;;;;;;;18.76;100.00;99604.19;5550410;32;34440;-84
2023/05/15 14:17:07;;;;;;;3.30;1.62;;;;;;;18.98;100.00;99610.19;5538670;32;34709;-85
2023/05/15 14:20:15;;;;;;;4.68;1.40;;;;;;;18.71;100.00;99615.41;5549548;32;33962;-85
2023/05/15 14:23:23;;;;;;;2.50;1.50;;;;;;;18.43;100.00;99612.69;5546123;32;33596;-86
2023/05/15 14:26:28;;;;;;;1.75;1.10;;;;;;;18.33;100.00;99609.19;5551096;32;34990;-85
2023/05/15 14:29:33;;;;;;;4.12;1.50;;;;;;;18.56;100.00;99603.47;5549911;32;33836;-85
2023/05/15 14:32:39;;;;;;;1.75;1.40;;;;;;;18.63;100.00;99606.38;5549583;32;34746;-87
2023/05/15 14:35:46;;;;;;;1.80;1.58;;;;;;;18.39;100.00;99608.59;5550305;32;34529;-87
2023/05/15 14:38:52;;;;;;;1.83;1.73;;;;;;;18.45;100.00;99616.06;5550561;32;33464;-87
2023/05/15 14:42:00;;;;;;;1.58;1.48;;;;;;;18.40;100.00;99620.19;5548561;32;34663;-87
2023/05/15 14:45:08;;;;;;;2.50;1.52;;;;;;;18.39;100.00;99618.47;5557389;32;33873;-87
2023/05/15 14:48:16;;;;;;;2.25;1.58;;;;;;;18.55;100.00;99625.91;5559349;32;34544;-87
2023/05/15 14:51:22;;;;;;;2.65;1.40;;;;;;;18.37;100.00;99617.78;5558571;32;34700;-87
2023/05/15 14:54:28;;;;;;;1.67;1.58;;;;;;;17.88;100.00;99630.28;5550792;32;34331;-87
2023/05/15 14:57:35;;;;;;;2.15;1.58;;;;;;;17.58;100.00;99639.31;5545702;32;33888;-87
2023/05/15 15:00:47;;;;;;;1.55;1.45;;;;;;;17.61;100.00;99639.88;5550315;32;34318;-86
2023/05/15 15:03:54;;;;;;;1.67;1.58;;;;;;;17.29;100.00;99637.44;5550199;32;34825;-90
2023/05/15 15:07:04;;;;;;;2.15;1.60;;;;;;;17.35;100.00;99639.56;5548952;32;33745;-91
2023/05/15 15:10:11;;;;;;;1.70;1.60;;;;;;;17.35;100.00;99642.25;5549573;32;33879;-87
2023/05/15 15:13:19;;;;;;;1.92;1.83;;;;;;;17.27;100.00;99645.63;5549404;32;33917;-87
2023/05/15 15:16:29;;;;;;;1.80;1.70;;;;;;;17.20;100.00;99647.16;5548183;32;34501;-87
2023/05/15 15:19:39;;;;;;;3.53;2.00;;;;;;;17.34;100.00;99651.25;5549974;32;34229;-87
2023/05/15 15:22:51;;;;;;;1.87;1.70;;;;;;;17.19;100.00;99650.78;5548597;32;33642;-87
2023/05/15 15:26:01;;;;;;;2.23;1.43;;;;;;;17.43;100.00;99661.16;5548438;32;33222;-87
